Mitchel — WDE7728 — position and weather

sailwx.info

Track history (hours):
 
Tides and Currents Weather Stations Pressure Air Temp Water Temp Dewpoint Dewpoint Depression Visibility Wind Speed Wind Dir Waves Ship Positions

Mitchel

Owner: AMERICAN TUGS INC., SAN JUAN, PR. More information available from US FCC via Universal Licensing System and Coast Guard Vessel Documentation Center.

Last reported at 2016-Aug-10 22:33 UTC. Time now 2016-Aug-25 08:05 UTC.
Position N 18°30' W 066°11'.
Warning: this ship's position is 14 days out of date.

Length 27 m; draft 3.1 m.

Type: Tug. MMSI: 367346890.

Date/timePositionNaut miles runAvg speedWind from/ knotsBaromVisibWave heightAir tempDewpointWater temp
2016-Aug-10 22:33N 18°30' W 066°11'4 4.0
2016-Aug-10 21:33N 18°28' W 066°08'2 1.5
2016-Aug-10 20:31N 18°28' W 066°06'0 0.0
2016-Aug-10 19:31N 18°28' W 066°06'0 0.0
2016-Aug-10 18:31N 18°28' W 066°06'0 0.0
2016-Aug-10 17:10N 18°28' W 066°06'0 0.0
2016-Aug-10 16:31N 18°28' W 066°06'0 0.0
2016-Aug-10 15:22N 18°28' W 066°06'0 0.0
2016-Aug-10 14:19N 18°28' W 066°06'0 0.0
2016-Aug-10 13:28N 18°28' W 066°06'0 0.0
2016-Aug-10 12:31N 18°28' W 066°06'0 0.0
2016-Aug-10 11:28N 18°28' W 066°06'0 0.0
2016-Aug-10 10:28N 18°28' W 066°06'0 0.0
2016-Aug-10 09:31N 18°28' W 066°06'0 0.0
2016-Aug-10 08:28N 18°28' W 066°06'0 0.0
2016-Aug-10 07:28N 18°28' W 066°06'0 0.0
2016-Aug-10 06:31N 18°28' W 066°06'0 0.0
2016-Aug-10 05:31N 18°28' W 066°06'0 0.0
2016-Aug-10 04:31N 18°28' W 066°06'0 0.0
2016-Aug-10 03:31N 18°28' W 066°06'0 0.0
2016-Aug-10 01:31N 18°28' W 066°06'0 0.0
2016-Aug-10 00:31N 18°28' W 066°06'0 0.0
2016-Aug-09 23:28N 18°28' W 066°06'0 0.0
2016-Aug-09 22:31N 18°28' W 066°06'0 0.0
2016-Aug-09 21:25N 18°28' W 066°06'0 0.0
2016-Aug-09 20:31N 18°28' W 066°06'0 0.0
2016-Aug-09 19:31N 18°28' W 066°06'0 0.0
2016-Aug-09 18:22N 18°28' W 066°06'0 0.0
2016-Aug-09 17:31N 18°28' W 066°06'0 0.0
2016-Aug-09 16:31N 18°28' W 066°06'0 0.0
2016-Aug-09 15:25N 18°28' W 066°06'0 0.0
2016-Aug-09 14:31N 18°28' W 066°06'0 0.0
2016-Aug-09 13:31N 18°28' W 066°06'0 0.0
2016-Aug-09 12:31N 18°28' W 066°06'0 0.0
2016-Aug-09 11:31N 18°28' W 066°06'0 0.2
2016-Aug-09 10:33N 18°28' W 066°06'3 2.6
2016-Aug-09 09:33N 18°30' W 066°07'3 2.5
2016-Aug-09 08:33N 18°30' W 066°04'5 5.2
2016-Aug-09 07:31N 18°30' W 065°59'35 3.5
2016-Aug-08 21:16N 17°55' W 065°59'4 5.6
2016-Aug-08 20:33N 17°54' W 066°03'5 5.2
2016-Aug-08 19:33N 17°54' W 066°08'3 2.4
2016-Aug-08 18:28N 17°56' W 066°09'0 0.0
2016-Aug-08 17:32N 17°56' W 066°09'0 0.0
2016-Aug-08 16:32N 17°56' W 066°09'0 0.0
2016-Aug-08 15:32N 17°56' W 066°09'0 0.0
2016-Aug-08 14:32N 17°56' W 066°09'0 0.0
2016-Aug-08 13:32N 17°56' W 066°09'0 0.0
2016-Aug-08 12:23N 17°56' W 066°09'0 0.0
2016-Aug-08 11:32N 17°56' W 066°09'0 0.0
2016-Aug-08 10:32N 17°56' W 066°09'0 0.0
2016-Aug-08 09:32N 17°56' W 066°09'0 0.0
2016-Aug-08 08:32N 17°56' W 066°09'0 0.0
2016-Aug-08 07:32N 17°56' W 066°09'0 0.0
2016-Aug-08 06:32N 17°56' W 066°09'0 0.0
2016-Aug-08 05:32N 17°56' W 066°09'0 0.0
2016-Aug-08 04:32N 17°56' W 066°09'0 0.0
2016-Aug-08 03:32N 17°56' W 066°09'0 0.0
2016-Aug-08 02:32N 17°56' W 066°09'0 0.0
2016-Aug-08 01:32N 17°56' W 066°09'0 0.0
2016-Aug-08 00:32N 17°56' W 066°09'0 0.0
2016-Aug-07 23:32N 17°56' W 066°09'0 0.0
2016-Aug-07 22:32N 17°56' W 066°09'0 0.0
2016-Aug-07 21:32N 17°56' W 066°09'0 0.0
2016-Aug-07 20:32N 17°56' W 066°09'0 0.0
2016-Aug-07 19:32N 17°56' W 066°09'0 0.0
2016-Aug-07 18:32N 17°56' W 066°09'0 0.0
2016-Aug-07 17:32N 17°56' W 066°09'0 0.0
2016-Aug-07 16:32N 17°56' W 066°09'0 0.0
2016-Aug-07 15:32N 17°56' W 066°09'0 0.0
2016-Aug-07 14:32N 17°56' W 066°09'0 0.0
2016-Aug-07 13:32N 17°56' W 066°09'0 0.0
2016-Aug-07 12:32N 17°56' W 066°09'0 0.0
2016-Aug-07 11:32N 17°56' W 066°09'0 0.0
2016-Aug-07 10:29N 17°56' W 066°09'0 0.0
2016-Aug-07 09:20N 17°56' W 066°09'0 0.0
2016-Aug-07 08:26N 17°56' W 066°09'0 0.0
2016-Aug-07 07:32N 17°56' W 066°09'0 0.0
2016-Aug-07 06:32N 17°56' W 066°09'0 0.0
2016-Aug-07 04:29N 17°56' W 066°09'0 0.0
2016-Aug-07 03:32N 17°56' W 066°09'0 0.0
2016-Aug-07 02:32N 17°56' W 066°09'0 0.0
2016-Aug-07 01:32N 17°56' W 066°09'0 0.0
2016-Aug-07 00:32N 17°56' W 066°09'0 0.0
2016-Aug-06 23:32N 17°56' W 066°09'0 0.0
2016-Aug-06 22:32N 17°56' W 066°09'0 0.0
2016-Aug-06 21:32N 17°56' W 066°09'0 0.0
2016-Aug-06 20:32N 17°56' W 066°09'0 0.0
2016-Aug-06 19:32N 17°56' W 066°09'0 0.0
2016-Aug-06 18:32N 17°56' W 066°09'0 0.0
2016-Aug-06 17:32N 17°56' W 066°09'0 0.0
2016-Aug-06 16:23N 17°56' W 066°09'0 0.0
2016-Aug-06 15:29N 17°56' W 066°09'0 0.0
2016-Aug-06 14:32N 17°56' W 066°09'0 0.0
2016-Aug-06 13:32N 17°56' W 066°09'0 0.0
2016-Aug-06 12:32N 17°56' W 066°09'0 0.0
2016-Aug-06 11:32N 17°56' W 066°09'0 0.0
2016-Aug-06 10:32N 17°56' W 066°09'0 0.0
2016-Aug-06 09:32N 17°56' W 066°09'0 0.0
2016-Aug-06 08:32N 17°56' W 066°09'0 0.0
2016-Aug-06 07:32N 17°56' W 066°09'0 0.0
2016-Aug-06 04:32N 17°56' W 066°09'0 0.0
2016-Aug-06 03:32N 17°56' W 066°09'0 0.0
2016-Aug-06 02:32N 17°56' W 066°09'0 0.0
2016-Aug-06 01:32N 17°56' W 066°09'0 0.0
2016-Aug-06 00:32N 17°56' W 066°09'0 0.0
2016-Aug-05 22:29N 17°56' W 066°09'0 0.0
2016-Aug-05 20:32N 17°56' W 066°09'0 0.0
2016-Aug-05 19:32N 17°56' W 066°09'0 0.0
2016-Aug-05 18:32N 17°56' W 066°09'0 0.0
2016-Aug-05 17:32N 17°56' W 066°09'0 0.0
2016-Aug-05 16:29N 17°56' W 066°09'0 0.0
2016-Aug-05 15:32N 17°56' W 066°09'0 0.0
2016-Aug-05 14:32N 17°56' W 066°09'0 0.0
2016-Aug-05 13:32N 17°56' W 066°09'0 0.0
2016-Aug-05 12:29N 17°56' W 066°09'0 0.0
2016-Aug-05 11:32N 17°56' W 066°09'0 0.0
2016-Aug-05 10:32N 17°56' W 066°09'0 0.0
2016-Aug-05 09:32N 17°56' W 066°09'0 0.0
2016-Aug-05 08:32N 17°56' W 066°09'0 0.0
2016-Aug-05 07:32N 17°56' W 066°09'0 0.0
2016-Aug-05 06:32N 17°56' W 066°09'0 0.0
2016-Aug-05 04:32N 17°56' W 066°09'0 0.0
2016-Aug-05 03:32N 17°56' W 066°09'0 0.0
2016-Aug-05 02:32N 17°56' W 066°09'0 0.0
2016-Aug-05 01:32N 17°56' W 066°09'0 0.0
2016-Aug-05 00:32N 17°56' W 066°09'0 0.0
2016-Aug-04 23:32N 17°56' W 066°09'0 0.0
2016-Aug-04 22:32N 17°56' W 066°09'0 0.0
2016-Aug-04 21:26N 17°56' W 066°09'0 0.0
2016-Aug-04 20:32N 17°56' W 066°09'0 0.0
2016-Aug-04 19:32N 17°56' W 066°09'0 0.0
2016-Aug-04 18:32N 17°56' W 066°09'0 0.0
2016-Aug-04 17:32N 17°56' W 066°09'0 0.0
2016-Aug-04 16:32N 17°56' W 066°09'0 0.0
2016-Aug-04 15:32N 17°56' W 066°09'0 0.0
2016-Aug-04 14:32N 17°56' W 066°09'0 0.0
2016-Aug-04 13:32N 17°56' W 066°09'0 0.0
2016-Aug-04 12:32N 17°56' W 066°09'0 0.0
2016-Aug-04 11:32N 17°56' W 066°09'0 0.0
2016-Aug-04 10:32N 17°56' W 066°09'0 0.0
2016-Aug-04 09:32N 17°56' W 066°09'0 0.0
2016-Aug-04 08:29N 17°56' W 066°09'0 0.0
2016-Aug-04 07:29N 17°56' W 066°09'0 0.0
2016-Aug-04 06:32N 17°56' W 066°09'0 0.0
2016-Aug-04 04:32N 17°56' W 066°09'0 0.0
2016-Aug-04 03:32N 17°56' W 066°09'0 0.0
2016-Aug-04 02:32N 17°56' W 066°09'0 0.0
2016-Aug-04 01:32N 17°56' W 066°09'0 0.0
2016-Aug-04 00:32N 17°56' W 066°09'0 0.0
2016-Aug-03 23:32N 17°56' W 066°09'0 0.0
2016-Aug-03 22:32N 17°56' W 066°09'0 0.0
2016-Aug-03 21:32N 17°56' W 066°09'0 0.0
2016-Aug-03 20:32N 17°56' W 066°09'0 0.0
2016-Aug-03 19:32N 17°56' W 066°09'0 0.0
2016-Aug-03 18:32N 17°56' W 066°09'0 0.0
2016-Aug-03 17:32N 17°56' W 066°09'0 0.0
2016-Aug-03 16:26N 17°56' W 066°09'0 0.0
2016-Aug-03 15:29N 17°56' W 066°09'0 0.0
2016-Aug-03 14:26N 17°56' W 066°09'0 0.0
2016-Aug-03 13:29N 17°56' W 066°09'0 0.0
2016-Aug-03 12:33N 17°56' W 066°09'0 0.0
2016-Aug-03 11:33N 17°56' W 066°09'0 0.0
2016-Aug-03 10:33N 17°56' W 066°09'0 0.0
2016-Aug-03 09:33N 17°56' W 066°09'0 0.0
2016-Aug-03 08:33N 17°56' W 066°09'0 0.0
2016-Aug-03 07:33N 17°56' W 066°09'0 0.0
2016-Aug-03 06:33N 17°56' W 066°09'0 0.0
2016-Aug-03 04:33N 17°56' W 066°09'0 0.0
2016-Aug-03 03:33N 17°56' W 066°09'0 0.0
2016-Aug-03 02:33N 17°56' W 066°09'0 0.0
2016-Aug-03 01:33N 17°56' W 066°09'0 0.0
2016-Aug-03 00:30N 17°56' W 066°09'0 0.0
2016-Aug-02 23:30N 17°56' W 066°09'0 0.0
2016-Aug-02 22:33N 17°56' W 066°09'0 0.0
2016-Aug-02 21:33N 17°56' W 066°09'0 0.0
2016-Aug-02 20:33N 17°56' W 066°09'3 3.4
2016-Aug-02 19:33N 17°55' W 066°06'  
Track history (hours):
 
Tides and Currents Weather Stations Pressure Air Temp Water Temp Dewpoint Dewpoint Depression Visibility Wind Speed Wind Dir Waves Ship Positions

Mitchel

Owner: AMERICAN TUGS INC., SAN JUAN, PR. More information available from US FCC via Universal Licensing System and Coast Guard Vessel Documentation Center.

Last reported at 2016-Aug-10 22:33 UTC. Time now 2016-Aug-25 08:05 UTC.
Position N 18°30' W 066°11'.
Warning: this ship's position is 14 days out of date.

Length 27 m; draft 3.1 m.

Type: Tug. MMSI: 367346890.

Date/timePositionNaut miles runAvg speedWind from/ knotsBaromVisibWave heightAir tempDewpointWater temp
2016-Aug-10 22:33N 18°30' W 066°11'4 4.0
2016-Aug-10 21:33N 18°28' W 066°08'2 1.5
2016-Aug-10 20:31N 18°28' W 066°06'0 0.0
2016-Aug-10 19:31N 18°28' W 066°06'0 0.0
2016-Aug-10 18:31N 18°28' W 066°06'0 0.0
2016-Aug-10 17:10N 18°28' W 066°06'0 0.0
2016-Aug-10 16:31N 18°28' W 066°06'0 0.0
2016-Aug-10 15:22N 18°28' W 066°06'0 0.0
2016-Aug-10 14:19N 18°28' W 066°06'0 0.0
2016-Aug-10 13:28N 18°28' W 066°06'0 0.0
2016-Aug-10 12:31N 18°28' W 066°06'0 0.0
2016-Aug-10 11:28N 18°28' W 066°06'0 0.0
2016-Aug-10 10:28N 18°28' W 066°06'0 0.0
2016-Aug-10 09:31N 18°28' W 066°06'0 0.0
2016-Aug-10 08:28N 18°28' W 066°06'0 0.0
2016-Aug-10 07:28N 18°28' W 066°06'0 0.0
2016-Aug-10 06:31N 18°28' W 066°06'0 0.0
2016-Aug-10 05:31N 18°28' W 066°06'0 0.0
2016-Aug-10 04:31N 18°28' W 066°06'0 0.0
2016-Aug-10 03:31N 18°28' W 066°06'0 0.0
2016-Aug-10 01:31N 18°28' W 066°06'0 0.0
2016-Aug-10 00:31N 18°28' W 066°06'0 0.0
2016-Aug-09 23:28N 18°28' W 066°06'0 0.0
2016-Aug-09 22:31N 18°28' W 066°06'0 0.0
2016-Aug-09 21:25N 18°28' W 066°06'0 0.0
2016-Aug-09 20:31N 18°28' W 066°06'0 0.0
2016-Aug-09 19:31N 18°28' W 066°06'0 0.0
2016-Aug-09 18:22N 18°28' W 066°06'0 0.0
2016-Aug-09 17:31N 18°28' W 066°06'0 0.0
2016-Aug-09 16:31N 18°28' W 066°06'0 0.0
2016-Aug-09 15:25N 18°28' W 066°06'0 0.0
2016-Aug-09 14:31N 18°28' W 066°06'0 0.0
2016-Aug-09 13:31N 18°28' W 066°06'0 0.0
2016-Aug-09 12:31N 18°28' W 066°06'0 0.0
2016-Aug-09 11:31N 18°28' W 066°06'0 0.2
2016-Aug-09 10:33N 18°28' W 066°06'3 2.6
2016-Aug-09 09:33N 18°30' W 066°07'3 2.5
2016-Aug-09 08:33N 18°30' W 066°04'5 5.2
2016-Aug-09 07:31N 18°30' W 065°59'35 3.5
2016-Aug-08 21:16N 17°55' W 065°59'4 5.6
2016-Aug-08 20:33N 17°54' W 066°03'5 5.2
2016-Aug-08 19:33N 17°54' W 066°08'3 2.4
2016-Aug-08 18:28N 17°56' W 066°09'0 0.0
2016-Aug-08 17:32N 17°56' W 066°09'0 0.0
2016-Aug-08 16:32N 17°56' W 066°09'0 0.0
2016-Aug-08 15:32N 17°56' W 066°09'0 0.0
2016-Aug-08 14:32N 17°56' W 066°09'0 0.0
2016-Aug-08 13:32N 17°56' W 066°09'0 0.0
2016-Aug-08 12:23N 17°56' W 066°09'0 0.0
2016-Aug-08 11:32N 17°56' W 066°09'0 0.0
2016-Aug-08 10:32N 17°56' W 066°09'0 0.0
2016-Aug-08 09:32N 17°56' W 066°09'0 0.0
2016-Aug-08 08:32N 17°56' W 066°09'0 0.0
2016-Aug-08 07:32N 17°56' W 066°09'0 0.0
2016-Aug-08 06:32N 17°56' W 066°09'0 0.0
2016-Aug-08 05:32N 17°56' W 066°09'0 0.0
2016-Aug-08 04:32N 17°56' W 066°09'0 0.0
2016-Aug-08 03:32N 17°56' W 066°09'0 0.0
2016-Aug-08 02:32N 17°56' W 066°09'0 0.0
2016-Aug-08 01:32N 17°56' W 066°09'0 0.0
2016-Aug-08 00:32N 17°56' W 066°09'0 0.0
2016-Aug-07 23:32N 17°56' W 066°09'0 0.0
2016-Aug-07 22:32N 17°56' W 066°09'0 0.0
2016-Aug-07 21:32N 17°56' W 066°09'0 0.0
2016-Aug-07 20:32N 17°56' W 066°09'0 0.0
2016-Aug-07 19:32N 17°56' W 066°09'0 0.0
2016-Aug-07 18:32N 17°56' W 066°09'0 0.0
2016-Aug-07 17:32N 17°56' W 066°09'0 0.0
2016-Aug-07 16:32N 17°56' W 066°09'0 0.0
2016-Aug-07 15:32N 17°56' W 066°09'0 0.0
2016-Aug-07 14:32N 17°56' W 066°09'0 0.0
2016-Aug-07 13:32N 17°56' W 066°09'0 0.0
2016-Aug-07 12:32N 17°56' W 066°09'0 0.0
2016-Aug-07 11:32N 17°56' W 066°09'0 0.0
2016-Aug-07 10:29N 17°56' W 066°09'0 0.0
2016-Aug-07 09:20N 17°56' W 066°09'0 0.0
2016-Aug-07 08:26N 17°56' W 066°09'0 0.0
2016-Aug-07 07:32N 17°56' W 066°09'0 0.0
2016-Aug-07 06:32N 17°56' W 066°09'0 0.0
2016-Aug-07 04:29N 17°56' W 066°09'0 0.0
2016-Aug-07 03:32N 17°56' W 066°09'0 0.0
2016-Aug-07 02:32N 17°56' W 066°09'0 0.0
2016-Aug-07 01:32N 17°56' W 066°09'0 0.0
2016-Aug-07 00:32N 17°56' W 066°09'0 0.0
2016-Aug-06 23:32N 17°56' W 066°09'0 0.0
2016-Aug-06 22:32N 17°56' W 066°09'0 0.0
2016-Aug-06 21:32N 17°56' W 066°09'0 0.0
2016-Aug-06 20:32N 17°56' W 066°09'0 0.0
2016-Aug-06 19:32N 17°56' W 066°09'0 0.0
2016-Aug-06 18:32N 17°56' W 066°09'0 0.0
2016-Aug-06 17:32N 17°56' W 066°09'0 0.0
2016-Aug-06 16:23N 17°56' W 066°09'0 0.0
2016-Aug-06 15:29N 17°56' W 066°09'0 0.0
2016-Aug-06 14:32N 17°56' W 066°09'0 0.0
2016-Aug-06 13:32N 17°56' W 066°09'0 0.0
2016-Aug-06 12:32N 17°56' W 066°09'0 0.0
2016-Aug-06 11:32N 17°56' W 066°09'0 0.0
2016-Aug-06 10:32N 17°56' W 066°09'0 0.0
2016-Aug-06 09:32N 17°56' W 066°09'0 0.0
2016-Aug-06 08:32N 17°56' W 066°09'0 0.0
2016-Aug-06 07:32N 17°56' W 066°09'0 0.0
2016-Aug-06 04:32N 17°56' W 066°09'0 0.0
2016-Aug-06 03:32N 17°56' W 066°09'0 0.0
2016-Aug-06 02:32N 17°56' W 066°09'0 0.0
2016-Aug-06 01:32N 17°56' W 066°09'0 0.0
2016-Aug-06 00:32N 17°56' W 066°09'0 0.0
2016-Aug-05 22:29N 17°56' W 066°09'0 0.0
2016-Aug-05 20:32N 17°56' W 066°09'0 0.0
2016-Aug-05 19:32N 17°56' W 066°09'0 0.0
2016-Aug-05 18:32N 17°56' W 066°09'0 0.0
2016-Aug-05 17:32N 17°56' W 066°09'0 0.0
2016-Aug-05 16:29N 17°56' W 066°09'0 0.0
2016-Aug-05 15:32N 17°56' W 066°09'0 0.0
2016-Aug-05 14:32N 17°56' W 066°09'0 0.0
2016-Aug-05 13:32N 17°56' W 066°09'0 0.0
2016-Aug-05 12:29N 17°56' W 066°09'0 0.0
2016-Aug-05 11:32N 17°56' W 066°09'0 0.0
2016-Aug-05 10:32N 17°56' W 066°09'0 0.0
2016-Aug-05 09:32N 17°56' W 066°09'0 0.0
2016-Aug-05 08:32N 17°56' W 066°09'0 0.0
2016-Aug-05 07:32N 17°56' W 066°09'0 0.0
2016-Aug-05 06:32N 17°56' W 066°09'0 0.0
2016-Aug-05 04:32N 17°56' W 066°09'0 0.0
2016-Aug-05 03:32N 17°56' W 066°09'0 0.0
2016-Aug-05 02:32N 17°56' W 066°09'0 0.0
2016-Aug-05 01:32N 17°56' W 066°09'0 0.0
2016-Aug-05 00:32N 17°56' W 066°09'0 0.0
2016-Aug-04 23:32N 17°56' W 066°09'0 0.0
2016-Aug-04 22:32N 17°56' W 066°09'0 0.0
2016-Aug-04 21:26N 17°56' W 066°09'0 0.0
2016-Aug-04 20:32N 17°56' W 066°09'0 0.0
2016-Aug-04 19:32N 17°56' W 066°09'0 0.0
2016-Aug-04 18:32N 17°56' W 066°09'0 0.0
2016-Aug-04 17:32N 17°56' W 066°09'0 0.0
2016-Aug-04 16:32N 17°56' W 066°09'0 0.0
2016-Aug-04 15:32N 17°56' W 066°09'0 0.0
2016-Aug-04 14:32N 17°56' W 066°09'0 0.0
2016-Aug-04 13:32N 17°56' W 066°09'0 0.0
2016-Aug-04 12:32N 17°56' W 066°09'0 0.0
2016-Aug-04 11:32N 17°56' W 066°09'0 0.0
2016-Aug-04 10:32N 17°56' W 066°09'0 0.0
2016-Aug-04 09:32N 17°56' W 066°09'0 0.0
2016-Aug-04 08:29N 17°56' W 066°09'0 0.0
2016-Aug-04 07:29N 17°56' W 066°09'0 0.0
2016-Aug-04 06:32N 17°56' W 066°09'0 0.0
2016-Aug-04 04:32N 17°56' W 066°09'0 0.0
2016-Aug-04 03:32N 17°56' W 066°09'0 0.0
2016-Aug-04 02:32N 17°56' W 066°09'0 0.0
2016-Aug-04 01:32N 17°56' W 066°09'0 0.0
2016-Aug-04 00:32N 17°56' W 066°09'0 0.0
2016-Aug-03 23:32N 17°56' W 066°09'0 0.0
2016-Aug-03 22:32N 17°56' W 066°09'0 0.0
2016-Aug-03 21:32N 17°56' W 066°09'0 0.0
2016-Aug-03 20:32N 17°56' W 066°09'0 0.0
2016-Aug-03 19:32N 17°56' W 066°09'0 0.0
2016-Aug-03 18:32N 17°56' W 066°09'0 0.0
2016-Aug-03 17:32N 17°56' W 066°09'0 0.0
2016-Aug-03 16:26N 17°56' W 066°09'0 0.0
2016-Aug-03 15:29N 17°56' W 066°09'0 0.0
2016-Aug-03 14:26N 17°56' W 066°09'0 0.0
2016-Aug-03 13:29N 17°56' W 066°09'0 0.0
2016-Aug-03 12:33N 17°56' W 066°09'0 0.0
2016-Aug-03 11:33N 17°56' W 066°09'0 0.0
2016-Aug-03 10:33N 17°56' W 066°09'0 0.0
2016-Aug-03 09:33N 17°56' W 066°09'0 0.0
2016-Aug-03 08:33N 17°56' W 066°09'0 0.0
2016-Aug-03 07:33N 17°56' W 066°09'0 0.0
2016-Aug-03 06:33N 17°56' W 066°09'0 0.0
2016-Aug-03 04:33N 17°56' W 066°09'0 0.0
2016-Aug-03 03:33N 17°56' W 066°09'0 0.0
2016-Aug-03 02:33N 17°56' W 066°09'0 0.0
2016-Aug-03 01:33N 17°56' W 066°09'0 0.0
2016-Aug-03 00:30N 17°56' W 066°09'0 0.0
2016-Aug-02 23:30N 17°56' W 066°09'0 0.0
2016-Aug-02 22:33N 17°56' W 066°09'0 0.0
2016-Aug-02 21:33N 17°56' W 066°09'0 0.0
2016-Aug-02 20:33N 17°56' W 066°09'3 3.4
2016-Aug-02 19:33N 17°55' W 066°06'  

Dump ship's entire track history